Time;durP1;ratioP1;P1;durP2;ratioP2;P2;SDS_P1;SDS_P2;PMS_P1;PMS_P2;Temp;Humidity;BMP_temperature;BMP_pressure;BME280_temperature;BME280_humidity;BME280_pressure;Samples;Min_cycle;Max_cycle;Signal;HPM_P1;HPM_P2
2023/07/16 00:02:24;;;;;;;;;;;;;;;21.45;80.83;97686.88;5021598;28;19980;-63
2023/07/16 00:05:12;;;;;;;;;;;;;;;21.59;80.26;97688.13;5026687;28;19933;-61
2023/07/16 00:08:00;;;;;;;;;;;;;;;21.56;80.99;97694.44;5027938;28;19925;-62
2023/07/16 00:10:48;;;;;;;;;;;;;;;21.48;81.59;97710.19;5025529;28;19929;-61
2023/07/16 00:13:38;;;;;;;;;;;;;;;21.37;82.34;97703.84;5022305;28;19932;-63
2023/07/16 00:16:26;;;;;;;;;;;;;;;21.52;82.38;97699.13;5011869;28;19947;-65
2023/07/16 00:19:15;;;;;;;;;;;;;;;21.57;81.24;97696.81;5037357;28;19936;-62
2023/07/16 00:22:04;;;;;;;;;;;;;;;21.69;81.35;97706.72;5042406;28;19924;-69
2023/07/16 00:24:52;;;;;;;;;;;;;;;21.59;81.36;97693.66;5020277;28;20072;-63
2023/07/16 00:27:40;;;;;;;;;;;;;;;21.64;81.09;97707.09;5026694;28;19929;-66
2023/07/16 00:30:30;;;;;;;;;;;;;;;21.51;82.89;97730.72;5021951;28;19929;-63
2023/07/16 00:33:18;;;;;;;;;;;;;;;21.59;81.75;97737.88;5026655;28;20429;-63
2023/07/16 00:36:07;;;;;;;;;;;;;;;21.39;81.98;97718.84;5025707;28;19925;-62
2023/07/16 00:38:55;;;;;;;;;;;;;;;21.29;82.46;97705.72;5037642;28;20492;-62
2023/07/16 00:41:43;;;;;;;;;;;;;;;21.11;83.10;97696.56;5028687;28;19929;-63
2023/07/16 00:44:32;;;;;;;;;;;;;;;21.17;84.19;97719.88;5021360;28;19929;-63
2023/07/16 00:47:21;;;;;;;;;;;;;;;21.11;84.92;97741.53;5029081;28;20409;-63
2023/07/16 00:50:11;;;;;;;;;;;;;;;21.14;84.57;97765.63;5016561;28;19959;-60
2023/07/16 00:52:59;;;;;;;;;;;;;;;21.28;83.52;97761.38;5013835;28;20475;-61
2023/07/16 00:55:48;;;;;;;;;;;;;;;21.29;83.29;97769.28;5025880;28;19972;-61
2023/07/16 00:58:36;;;;;;;;;;;;;;;21.35;83.81;97786.31;5025363;28;20393;-65
2023/07/16 01:01:24;;;;;;;;;;;;;;;21.29;83.42;97802.44;5030378;28;19924;-63
2023/07/16 01:04:14;;;;;;;;;;;;;;;21.27;83.75;97821.38;5024103;28;19925;-61
2023/07/16 01:07:03;;;;;;;;;;;;;;;21.21;83.20;97814.63;5036247;28;19932;-70
2023/07/16 01:09:51;;;;;;;;;;;;;;;21.24;83.90;97818.56;5025680;28;19935;-61
2023/07/16 01:12:39;;;;;;;;;;;;;;;21.33;84.12;97830.91;5021147;28;19929;-64
2023/07/16 01:15:27;;;;;;;;;;;;;;;21.21;84.84;97836.72;5024039;28;19925;-62
2023/07/16 01:18:15;;;;;;;;;;;;;;;21.25;83.10;97818.19;5029477;28;20339;-61
2023/07/16 01:21:05;;;;;;;;;;;;;;;21.19;83.14;97826.03;5025099;28;19933;-67
2023/07/16 01:24:00;;;;;;;;;;;;;;;21.24;82.71;97826.88;5018920;28;19971;-60
2023/07/16 01:26:52;;;;;;;;;;;;;;;21.17;83.29;97844.97;5021364;28;19926;-63
2023/07/16 01:29:42;;;;;;;;;;;;;;;21.21;81.45;97864.34;5039131;28;19968;-61
2023/07/16 01:32:30;;;;;;;;;;;;;;;21.12;81.54;97874.94;5025954;28;19929;-62
2023/07/16 01:35:22;;;;;;;;;;;;;;;21.16;82.53;97868.25;5026303;28;19933;-60
2023/07/16 01:38:10;;;;;;;;;;;;;;;21.13;82.68;97865.47;5023516;28;19929;-63
2023/07/16 01:40:59;;;;;;;;;;;;;;;20.84;81.51;97873.50;5031224;28;19932;-61
2023/07/16 01:43:47;;;;;;;;;;;;;;;20.87;82.07;97852.59;5023309;28;20311;-60
2023/07/16 01:46:37;;;;;;;;;;;;;;;20.92;82.00;97832.94;5028980;28;19936;-62
2023/07/16 01:49:25;;;;;;;;;;;;;;;20.78;81.75;97830.84;5017441;28;20498;-61
2023/07/16 01:52:14;;;;;;;;;;;;;;;20.71;82.88;97861.13;5039030;28;19931;-63
2023/07/16 01:55:02;;;;;;;;;;;;;;;20.67;82.64;97882.41;5035603;28;19955;-64
2023/07/16 01:57:51;;;;;;;;;;;;;;;20.66;81.59;97859.50;5030921;28;20417;-62
2023/07/16 02:00:39;;;;;;;;;;;;;;;20.65;81.21;97827.56;5028866;28;19940;-60
2023/07/16 02:03:29;;;;;;;;;;;;;;;20.64;82.51;97827.94;5028382;28;19925;-61
2023/07/16 02:06:18;;;;;;;;;;;;;;;20.80;81.50;97849.78;5024563;28;19925;-62
2023/07/16 02:09:09;;;;;;;;;;;;;;;20.75;81.89;97839.88;5026148;28;20374;-63
2023/07/16 02:11:57;;;;;;;;;;;;;;;20.88;81.84;97827.41;5026984;28;19928;-62
2023/07/16 02:14:45;;;;;;;;;;;;;;;20.74;83.16;97832.78;5011644;28;19930;-63
2023/07/16 02:17:34;;;;;;;;;;;;;;;20.95;83.10;97831.38;5024992;28;19929;-64
2023/07/16 02:20:23;;;;;;;;;;;;;;;20.92;82.79;97827.41;5014725;28;20310;-65
2023/07/16 02:23:11;;;;;;;;;;;;;;;20.96;82.16;97830.22;5018164;28;19933;-62
2023/07/16 02:25:59;;;;;;;;;;;;;;;20.90;82.53;97840.81;5021231;28;19929;-62
2023/07/16 02:28:48;;;;;;;;;;;;;;;20.90;83.00;97858.16;5021459;28;19940;-64
2023/07/16 02:31:36;;;;;;;;;;;;;;;20.87;82.79;97845.13;5012710;28;19929;-63
2023/07/16 02:34:24;;;;;;;;;;;;;;;20.90;82.93;97855.41;5028065;28;19936;-63
2023/07/16 02:37:16;;;;;;;;;;;;;;;20.86;82.98;97849.06;5025819;28;20052;-61
2023/07/16 02:40:04;;;;;;;;;;;;;;;20.82;83.17;97853.75;5017878;28;20417;-66
2023/07/16 02:42:53;;;;;;;;;;;;;;;21.01;81.82;97829.84;5021519;28;19987;-61
2023/07/16 02:45:41;;;;;;;;;;;;;;;20.99;81.72;97823.94;5015327;28;19933;-62
2023/07/16 02:48:29;;;;;;;;;;;;;;;20.73;83.85;97853.28;5032715;28;19936;-60
2023/07/16 02:51:17;;;;;;;;;;;;;;;20.80;83.38;97869.13;5022252;28;19972;-63
2023/07/16 02:54:07;;;;;;;;;;;;;;;20.80;82.46;97875.44;5030186;28;20102;-60
2023/07/16 02:56:55;;;;;;;;;;;;;;;20.70;83.60;97876.13;5029276;28;19951;-60
2023/07/16 02:59:43;;;;;;;;;;;;;;;20.81;81.88;97888.06;5031624;28;20004;-60
2023/07/16 03:02:31;;;;;;;;;;;;;;;20.74;82.37;97878.91;5014308;28;19936;-62
2023/07/16 03:05:19;;;;;;;;;;;;;;;20.82;82.14;97886.88;5021770;28;20599;-62
2023/07/16 03:08:08;;;;;;;;;;;;;;;20.73;82.65;97880.09;5027627;28;20354;-62
2023/07/16 03:10:57;;;;;;;;;;;;;;;20.74;82.22;97857.63;5033838;28;19929;-62
2023/07/16 03:13:46;;;;;;;;;;;;;;;20.75;81.96;97861.19;5034200;28;19940;-63
2023/07/16 03:16:35;;;;;;;;;;;;;;;20.81;82.13;97865.19;5027236;28;19925;-61
2023/07/16 03:19:23;;;;;;;;;;;;;;;20.46;83.36;97877.44;5025265;28;19929;-62
2023/07/16 03:22:11;;;;;;;;;;;;;;;20.41;83.04;97886.81;5021176;28;19933;-64
2023/07/16 03:24:59;;;;;;;;;;;;;;;20.36;82.92;97895.44;5032853;28;20297;-62
2023/07/16 03:27:49;;;;;;;;;;;;;;;20.42;82.60;97904.97;5021038;28;19937;-63
2023/07/16 03:30:38;;;;;;;;;;;;;;;20.56;81.67;97901.63;5040982;28;19925;-60
2023/07/16 03:33:26;;;;;;;;;;;;;;;20.51;79.87;97907.47;5024888;28;19929;-62
2023/07/16 03:36:17;;;;;;;;;;;;;;;20.34;78.95;97892.25;5032314;28;19951;-64
2023/07/16 03:39:06;;;;;;;;;;;;;;;20.38;79.70;97895.06;5025602;28;19925;-65
2023/07/16 03:41:55;;;;;;;;;;;;;;;20.31;80.08;97898.53;5035573;28;19925;-62
2023/07/16 03:44:45;;;;;;;;;;;;;;;20.34;80.55;97903.28;5018799;28;19933;-64
2023/07/16 03:47:33;;;;;;;;;;;;;;;20.26;80.38;97901.63;5024789;28;19925;-64
2023/07/16 03:50:21;;;;;;;;;;;;;;;20.33;80.46;97898.94;5026017;28;20357;-62
2023/07/16 03:53:09;;;;;;;;;;;;;;;20.25;80.21;97908.31;5025178;28;20033;-59
2023/07/16 03:55:58;;;;;;;;;;;;;;;20.30;79.33;97918.22;5020792;28;19933;-63
2023/07/16 03:58:46;;;;;;;;;;;;;;;20.34;80.01;97913.53;5034940;28;19932;-65
2023/07/16 04:01:36;;;;;;;;;;;;;;;20.32;80.39;97915.88;5023828;28;19925;-61
2023/07/16 04:04:24;;;;;;;;;;;;;;;20.35;79.01;97923.41;5020072;28;20267;-63
2023/07/16 04:07:13;;;;;;;;;;;;;;;20.36;78.78;97939.59;5024643;28;20330;-65
2023/07/16 04:10:01;;;;;;;;;;;;;;;20.31;78.47;97948.19;5025844;28;19929;-63
2023/07/16 04:12:52;;;;;;;;;;;;;;;20.25;79.16;97943.38;5031063;28;19929;-63
2023/07/16 04:15:40;;;;;;;;;;;;;;;20.27;79.43;97952.84;5034289;28;19955;-65
2023/07/16 04:18:29;;;;;;;;;;;;;;;20.36;79.91;97958.91;5027254;28;19925;-62
2023/07/16 04:21:17;;;;;;;;;;;;;;;20.30;78.34;97962.38;5017572;28;20022;-61
2023/07/16 04:24:06;;;;;;;;;;;;;;;20.39;76.65;97969.16;5027062;28;19925;-65
2023/07/16 04:26:56;;;;;;;;;;;;;;;20.10;75.25;97964.44;5026463;28;19933;-62
2023/07/16 04:29:44;;;;;;;;;;;;;;;20.18;73.76;97985.44;5027065;28;19956;-64
2023/07/16 04:32:32;;;;;;;;;;;;;;;20.17;74.32;98002.38;5030147;28;20310;-63
2023/07/16 04:35:22;;;;;;;;;;;;;;;20.18;73.73;98040.59;5039735;28;19943;-63
2023/07/16 04:38:10;;;;;;;;;;;;;;;20.13;74.14;98038.16;5020943;28;19925;-60
2023/07/16 04:40:59;;;;;;;;;;;;;;;20.16;73.14;98045.72;5016853;28;19937;-63
2023/07/16 04:43:47;;;;;;;;;;;;;;;20.07;73.62;98037.69;5023896;28;19929;-62
2023/07/16 04:46:35;;;;;;;;;;;;;;;20.08;72.09;98024.69;5030584;28;19994;-61
2023/07/16 04:49:23;;;;;;;;;;;;;;;19.93;70.64;98029.22;5014233;28;19968;-61
2023/07/16 04:52:13;;;;;;;;;;;;;;;20.00;71.67;98034.03;5019849;28;19929;-60
2023/07/16 04:55:02;;;;;;;;;;;;;;;20.06;71.94;98052.66;5020657;28;19925;-60
2023/07/16 04:57:53;;;;;;;;;;;;;;;20.07;71.90;98025.84;5027341;28;19932;-61
2023/07/16 05:00:41;;;;;;;;;;;;;;;19.92;70.40;98035.91;5020522;28;19960;-62
2023/07/16 05:03:29;;;;;;;;;;;;;;;19.72;70.17;98035.19;5022652;28;20628;-63
2023/07/16 05:06:18;;;;;;;;;;;;;;;19.52;71.53;98044.63;5024199;28;19929;-60
2023/07/16 05:09:07;;;;;;;;;;;;;;;19.57;72.62;98049.84;5024340;28;20416;-62
2023/07/16 05:11:55;;;;;;;;;;;;;;;19.53;73.14;98046.22;5025582;28;20154;-61
2023/07/16 05:14:44;;;;;;;;;;;;;;;19.42;72.73;98059.00;5019044;28;20504;-59
2023/07/16 05:17:32;;;;;;;;;;;;;;;19.25;72.08;98052.81;5022230;28;20409;-63
2023/07/16 05:20:20;;;;;;;;;;;;;;;18.97;71.94;98058.56;5024410;28;20016;-60
2023/07/16 05:23:10;;;;;;;;;;;;;;;19.01;71.56;98062.16;5021197;28;19929;-60
2023/07/16 05:26:00;;;;;;;;;;;;;;;19.01;72.94;98066.88;5021488;28;19933;-61
2023/07/16 05:28:48;;;;;;;;;;;;;;;19.18;71.55;98069.22;5023596;28;19937;-65
2023/07/16 05:31:36;;;;;;;;;;;;;;;18.90;72.59;98071.38;5022159;28;19959;-62
2023/07/16 05:34:26;;;;;;;;;;;;;;;18.79;73.09;98085.72;5015736;28;20088;-61
2023/07/16 05:37:15;;;;;;;;;;;;;;;18.76;72.79;98080.94;5019436;28;19956;-65
2023/07/16 05:40:03;;;;;;;;;;;;;;;18.74;72.68;98075.00;5021142;28;19925;-69
2023/07/16 05:42:53;;;;;;;;;;;;;;;18.81;72.65;98093.63;5037630;28;19932;-59
2023/07/16 05:45:41;;;;;;;;;;;;;;;19.04;71.77;98093.72;5017419;28;19925;-60
2023/07/16 05:48:29;;;;;;;;;;;;;;;19.16;72.11;98079.78;5025414;28;20076;-61
2023/07/16 05:51:18;;;;;;;;;;;;;;;19.06;70.75;98085.88;5021879;28;19937;-64
2023/07/16 05:54:06;;;;;;;;;;;;;;;19.04;71.60;98090.94;5017897;28;19935;-63
2023/07/16 05:56:56;;;;;;;;;;;;;;;18.96;71.26;98080.94;5025057;28;19929;-63
2023/07/16 05:59:45;;;;;;;;;;;;;;;19.32;70.26;98077.72;5022337;28;19929;-62
2023/07/16 06:02:34;;;;;;;;;;;;;;;19.14;70.72;98078.56;5015843;28;20037;-60
2023/07/16 06:05:24;;;;;;;;;;;;;;;18.86;70.51;98076.84;5027801;28;19955;-62
2023/07/16 06:08:12;;;;;;;;;;;;;;;19.06;70.81;98083.13;5025411;28;19925;-60
2023/07/16 06:11:00;;;;;;;;;;;;;;;19.02;70.92;98090.53;5020700;28;20587;-62
2023/07/16 06:13:48;;;;;;;;;;;;;;;19.22;70.20;98102.31;5022583;28;19929;-64
2023/07/16 06:16:38;;;;;;;;;;;;;;;18.98;70.68;98109.72;5022722;28;19932;-61
2023/07/16 06:19:26;;;;;;;;;;;;;;;19.16;69.85;98104.56;5013624;28;19961;-61
2023/07/16 06:22:14;;;;;;;;;;;;;;;19.27;70.18;98100.06;5017793;28;19940;-63
2023/07/16 06:25:04;;;;;;;;;;;;;;;19.15;70.77;98102.97;5021635;28;19968;-61
2023/07/16 06:27:52;;;;;;;;;;;;;;;18.99;70.21;98113.25;5020135;28;19925;-66
2023/07/16 06:30:40;;;;;;;;;;;;;;;19.00;70.24;98123.13;5020025;28;19965;-60
2023/07/16 06:33:30;;;;;;;;;;;;;;;18.97;71.33;98126.59;5021993;28;20295;-63
2023/07/16 06:36:20;;;;;;;;;;;;;;;19.07;69.81;98134.28;5019619;28;19929;-62
2023/07/16 06:39:08;;;;;;;;;;;;;;;19.05;69.73;98136.59;5021148;28;19940;-64
2023/07/16 06:41:56;;;;;;;;;;;;;;;19.06;69.46;98127.16;5018167;28;19929;-62
2023/07/16 06:44:44;;;;;;;;;;;;;;;19.10;69.72;98131.59;5015363;28;20019;-61
2023/07/16 06:47:33;;;;;;;;;;;;;;;19.36;67.78;98127.38;5018500;28;19932;-61
2023/07/16 06:50:24;;;;;;;;;;;;;;;19.33;69.10;98126.19;5026650;28;20271;-62
2023/07/16 06:53:12;;;;;;;;;;;;;;;19.33;69.37;98130.84;5013068;28;20008;-59
2023/07/16 06:56:00;;;;;;;;;;;;;;;19.33;67.58;98128.94;5017126;28;19936;-60
2023/07/16 06:58:48;;;;;;;;;;;;;;;19.45;67.07;98132.69;5017771;28;20497;-62
2023/07/16 07:01:36;;;;;;;;;;;;;;;19.70;68.40;98125.69;5017645;28;19925;-59
2023/07/16 07:04:25;;;;;;;;;;;;;;;19.70;66.66;98136.72;5026953;28;19934;-60
2023/07/16 07:07:15;;;;;;;;;;;;;;;19.49;67.03;98141.78;5020879;28;19985;-59
2023/07/16 07:10:03;;;;;;;;;;;;;;;19.59;67.30;98141.22;5013898;28;20390;-63
2023/07/16 07:12:51;;;;;;;;;;;;;;;19.45;67.09;98139.00;5020698;28;20590;-59
2023/07/16 07:15:39;;;;;;;;;;;;;;;19.28;67.90;98154.00;5021513;28;19936;-60
2023/07/16 07:18:27;;;;;;;;;;;;;;;19.18;68.26;98146.31;5019989;28;19933;-59
2023/07/16 07:21:15;;;;;;;;;;;;;;;19.16;68.51;98147.84;5015180;28;19929;-65
2023/07/16 07:24:06;;;;;;;;;;;;;;;19.26;69.09;98155.53;5018233;28;20378;-63
2023/07/16 07:26:54;;;;;;;;;;;;;;;19.31;69.14;98157.97;5021253;28;20314;-62
2023/07/16 07:29:42;;;;;;;;;;;;;;;19.43;69.31;98157.03;5021566;28;19932;-61
2023/07/16 07:32:31;;;;;;;;;;;;;;;19.55;68.13;98154.94;5010048;28;19925;-63
2023/07/16 07:35:19;;;;;;;;;;;;;;;19.34;68.58;98158.06;5016479;28;19929;-64
2023/07/16 07:38:07;;;;;;;;;;;;;;;19.28;68.26;98137.47;5026140;28;20286;-62
2023/07/16 07:40:57;;;;;;;;;;;;;;;19.11;68.93;98157.19;5028752;28;20416;-60
2023/07/16 07:43:45;;;;;;;;;;;;;;;19.22;68.83;98152.69;5023672;28;19933;-63
2023/07/16 07:46:33;;;;;;;;;;;;;;;19.33;67.94;98148.22;5025198;28;19925;-63
2023/07/16 07:49:21;;;;;;;;;;;;;;;19.28;68.28;98148.50;5027315;28;19929;-59
2023/07/16 07:52:09;;;;;;;;;;;;;;;19.09;67.87;98143.78;5018642;28;19929;-64
2023/07/16 07:54:58;;;;;;;;;;;;;;;19.14;68.13;98148.19;5025453;28;19932;-59
2023/07/16 07:57:47;;;;;;;;;;;;;;;19.10;67.85;98139.06;5025406;28;20325;-63
2023/07/16 08:00:35;;;;;;;;;;;;;;;19.09;68.39;98129.22;5024304;28;19933;-60
2023/07/16 08:03:23;;;;;;;;;;;;;;;19.24;68.95;98133.84;5019970;28;19999;-63
2023/07/16 08:06:12;;;;;;;;;;;;;;;19.44;67.01;98139.34;5018963;28;19940;-59
2023/07/16 08:09:01;;;;;;;;;;;;;;;19.59;67.03;98144.78;5022885;28;19925;-60
2023/07/16 08:11:49;;;;;;;;;;;;;;;19.61;66.64;98133.41;5022085;28;19940;-63
2023/07/16 08:14:38;;;;;;;;;;;;;;;19.65;66.43;98155.50;5023340;28;19929;-63
2023/07/16 08:17:27;;;;;;;;;;;;;;;19.46;67.07;98157.09;5020343;28;20032;-61
2023/07/16 08:20:15;;;;;;;;;;;;;;;19.37;67.70;98171.09;5026320;28;19925;-62
2023/07/16 08:23:03;;;;;;;;;;;;;;;19.33;67.34;98164.75;5021440;28;20136;-62
2023/07/16 08:25:51;;;;;;;;;;;;;;;19.28;67.05;98172.47;5022251;28;20320;-59
2023/07/16 08:28:39;;;;;;;;;;;;;;;19.40;67.08;98163.28;5024773;28;20334;-66
2023/07/16 08:31:31;;;;;;;;;;;;;;;19.52;65.70;98168.63;5024827;28;20045;-61
2023/07/16 08:34:19;;;;;;;;;;;;;;;19.78;65.95;98168.78;5020293;28;19935;-62
2023/07/16 08:37:07;;;;;;;;;;;;;;;19.66;66.00;98168.16;5019601;28;20394;-59
2023/07/16 08:39:55;;;;;;;;;;;;;;;19.51;65.72;98176.09;5026620;28;19929;-59
2023/07/16 08:42:45;;;;;;;;;;;;;;;19.71;66.00;98174.16;5023054;28;20520;-64
2023/07/16 08:45:33;;;;;;;;;;;;;;;19.72;65.34;98166.69;5024567;28;19936;-63
2023/07/16 08:48:23;;;;;;;;;;;;;;;19.71;64.67;98165.91;5022214;28;19936;-61
2023/07/16 08:51:12;;;;;;;;;;;;;;;19.89;64.47;98175.28;5018439;28;19940;-62
2023/07/16 08:54:00;;;;;;;;;;;;;;;19.73;64.79;98182.06;5017799;28;19933;-61
2023/07/16 08:56:48;;;;;;;;;;;;;;;19.70;64.53;98186.31;5023294;28;20015;-68
2023/07/16 08:59:36;;;;;;;;;;;;;;;19.66;65.31;98182.72;5017027;28;19991;-60
2023/07/16 09:02:25;;;;;;;;;;;;;;;19.79;65.22;98181.38;5015602;28;19979;-61
2023/07/16 09:05:14;;;;;;;;;;;;;;;19.86;64.72;98187.03;5022403;28;20023;-63
2023/07/16 09:08:15;;;;;;;;;;;;;;;19.91;65.17;98176.88;5020383;28;19925;-62
2023/07/16 09:11:03;;;;;;;;;;;;;;;20.31;63.48;98176.41;5018114;28;20126;-59
2023/07/16 09:13:54;;;;;;;;;;;;;;;20.36;62.05;98185.16;5021544;28;19929;-62
2023/07/16 09:16:42;;;;;;;;;;;;;;;20.55;62.09;98183.50;5022591;28;20429;-61
2023/07/16 09:19:32;;;;;;;;;;;;;;;20.97;61.15;98188.84;5023441;28;20394;-61
2023/07/16 09:22:23;;;;;;;;;;;;;;;20.84;61.04;98180.00;5016163;28;19932;-63
2023/07/16 09:25:11;;;;;;;;;;;;;;;20.94;58.92;98175.81;5022282;28;19933;-60
2023/07/16 09:28:02;;;;;;;;;;;;;;;20.87;58.69;98179.25;5020416;28;19925;-62
2023/07/16 09:30:50;;;;;;;;;;;;;;;20.93;58.49;98183.31;5029487;28;19929;-65
2023/07/16 09:33:38;;;;;;;;;;;;;;;20.85;56.79;98176.06;5024931;28;19940;-61
2023/07/16 09:36:27;;;;;;;;;;;;;;;20.91;58.87;98185.63;5017303;28;19960;-65
2023/07/16 09:39:17;;;;;;;;;;;;;;;21.05;58.12;98187.00;5035130;28;19929;-59
2023/07/16 09:42:06;;;;;;;;;;;;;;;20.86;57.38;98183.19;5012567;28;19932;-61
2023/07/16 09:44:54;;;;;;;;;;;;;;;21.05;57.67;98181.47;5027123;28;19956;-63
2023/07/16 09:47:42;;;;;;;;;;;;;;;20.99;57.63;98181.00;5027047;28;19932;-65
2023/07/16 09:50:30;;;;;;;;;;;;;;;21.18;56.95;98169.81;5026625;28;19952;-63
2023/07/16 09:53:21;;;;;;;;;;;;;;;21.43;56.82;98172.91;5027879;28;20004;-59
2023/07/16 09:56:12;;;;;;;;;;;;;;;21.59;56.91;98167.19;5028427;28;20064;-60
2023/07/16 09:59:01;;;;;;;;;;;;;;;21.69;56.75;98163.75;5028876;28;19929;-61
2023/07/16 10:01:50;;;;;;;;;;;;;;;21.64;55.21;98160.53;5025230;28;19956;-61
2023/07/16 10:04:39;;;;;;;;;;;;;;;21.65;55.95;98162.91;5026887;28;20546;-61
2023/07/16 10:07:27;;;;;;;;;;;;;;;21.59;54.35;98169.16;5022997;28;20050;-63
2023/07/16 10:10:17;;;;;;;;;;;;;;;21.65;54.08;98167.63;5023406;28;19931;-63
2023/07/16 10:13:07;;;;;;;;;;;;;;;21.57;54.42;98160.41;5020364;28;19925;-63
2023/07/16 10:15:56;;;;;;;;;;;;;;;21.59;55.00;98164.41;5034525;28;19932;-61
2023/07/16 10:18:51;;;;;;;;;;;;;;;21.61;56.08;98169.56;5034558;28;19933;-64
2023/07/16 10:21:40;;;;;;;;;;;;;;;21.59;55.38;98164.41;5016874;28;20280;-64
2023/07/16 10:24:28;;;;;;;;;;;;;;;21.52;53.74;98163.53;5023234;28;19925;-61
2023/07/16 10:27:16;;;;;;;;;;;;;;;21.50;54.76;98152.06;5020667;28;19961;-63
2023/07/16 10:30:07;;;;;;;;;;;;;;;21.66;54.57;98153.41;5023465;28;20350;-63
2023/07/16 10:32:57;;;;;;;;;;;;;;;21.85;52.12;98148.88;5026335;28;19931;-60
2023/07/16 10:35:47;;;;;;;;;;;;;;;21.90;53.57;98148.53;5017306;28;19929;-61
2023/07/16 10:38:41;;;;;;;;;;;;;;;21.98;52.71;98150.97;5022829;28;19925;-62
2023/07/16 10:41:29;;;;;;;;;;;;;;;;;;5018443;28;19932;-60
2023/07/16 10:44:17;;;;;;;;;;;;;;;22.13;52.73;98153.91;5024392;28;19925;-60
2023/07/16 10:47:10;;;;;;;;;;;;;;;22.29;53.39;98146.16;5024865;28;20307;-63
2023/07/16 10:50:00;;;;;;;;;;;;;;;22.26;53.40;98151.63;5023714;28;19932;-61
2023/07/16 10:52:51;;;;;;;;;;;;;;;22.16;51.98;98144.88;5025289;28;19925;-62
2023/07/16 10:55:39;;;;;;;;;;;;;;;22.11;52.54;98142.44;5028994;28;19956;-60
2023/07/16 10:58:28;;;;;;;;;;;;;;;22.16;52.46;98142.88;5016801;28;19929;-62
2023/07/16 11:01:17;;;;;;;;;;;;;;;22.12;53.49;98130.19;5021263;28;19929;-62
2023/07/16 11:04:09;;;;;;;;;;;;;;;22.23;53.51;98125.53;5025982;28;20016;-63
2023/07/16 11:06:57;;;;;;;;;;;;;;;22.32;53.68;98134.31;5030271;28;20543;-63
2023/07/16 11:09:47;;;;;;;;;;;;;;;22.30;53.29;98136.66;5020255;28;19948;-63
2023/07/16 11:12:38;;;;;;;;;;;;;;;22.43;52.81;98129.66;5017793;28;19936;-61
2023/07/16 11:15:35;;;;;;;;;;;;;;;22.36;50.49;98129.59;5027989;28;19940;-63
2023/07/16 11:18:24;;;;;;;;;;;;;;;22.47;52.67;98127.69;5042964;28;19998;-63
2023/07/16 11:21:14;;;;;;;;;;;;;;;22.47;51.24;98122.16;5020269;28;19976;-62
2023/07/16 11:24:08;;;;;;;;;;;;;;;22.45;50.61;98130.06;5023141;28;19937;-69
2023/07/16 11:26:57;;;;;;;;;;;;;;;22.53;49.87;98116.25;5029532;28;19935;-61
2023/07/16 11:29:46;;;;;;;;;;;;;;;22.67;50.90;98117.13;5021557;28;20402;-63
2023/07/16 11:32:35;;;;;;;;;;;;;;;22.69;51.27;98119.50;5027850;28;19947;-65
2023/07/16 11:35:23;;;;;;;;;;;;;;;22.69;49.77;98103.72;5020884;28;20441;-61
2023/07/16 11:38:13;;;;;;;;;;;;;;;22.65;50.48;98105.66;5034991;28;20023;-62
2023/07/16 11:41:01;;;;;;;;;;;;;;;22.68;51.46;98113.19;5024774;28;20402;-62
2023/07/16 11:43:50;;;;;;;;;;;;;;;22.74;50.46;98108.91;5039629;28;19928;-63
2023/07/16 11:46:37;;;;;;;;;;;;;;;22.84;51.02;98109.31;5026266;28;19927;-62
2023/07/16 11:49:26;;;;;;;;;;;;;;;22.66;49.00;98103.69;5029955;28;20050;-60
2023/07/16 11:52:14;;;;;;;;;;;;;;;22.72;49.09;98107.69;5026100;28;20429;-61
2023/07/16 11:55:04;;;;;;;;;;;;;;;22.82;50.58;98112.47;5019630;28;19936;-62
2023/07/16 11:57:52;;;;;;;;;;;;;;;22.88;50.66;98096.31;5018736;28;19932;-61
2023/07/16 12:00:41;;;;;;;;;;;;;;;22.83;48.33;98108.53;5031565;28;20020;-66
2023/07/16 12:03:29;;;;;;;;;;;;;;;22.94;50.20;98100.31;5030890;28;19925;-61
2023/07/16 12:06:19;;;;;;;;;;;;;;;22.83;48.66;98091.13;5025291;28;20414;-63
2023/07/16 12:09:08;;;;;;;;;;;;;;;22.96;48.34;98087.66;5022004;28;19936;-61
2023/07/16 12:11:58;;;;;;;;;;;;;;;22.92;48.78;98095.16;5032771;28;19929;-62
2023/07/16 12:14:46;;;;;;;;;;;;;;;22.99;50.33;98095.19;5014182;28;19929;-64
2023/07/16 12:17:34;;;;;;;;;;;;;;;22.94;49.07;98092.00;5021394;28;19932;-60
2023/07/16 12:20:22;;;;;;;;;;;;;;;23.00;48.82;98082.13;5025928;28;19936;-60
2023/07/16 12:23:11;;;;;;;;;;;;;;;23.02;48.35;98092.84;5025608;28;19929;-61
2023/07/16 12:26:00;;;;;;;;;;;;;;;23.07;49.70;98095.22;5019317;28;19932;-61
2023/07/16 12:28:49;;;;;;;;;;;;;;;23.08;48.88;98085.72;5021854;28;19932;-62
2023/07/16 12:31:37;;;;;;;;;;;;;;;23.12;49.54;98087.34;5030479;28;19937;-62
2023/07/16 12:34:25;;;;;;;;;;;;;;;23.20;49.44;98083.38;5021093;28;19925;-60
2023/07/16 12:37:14;;;;;;;;;;;;;;;23.21;47.54;98078.63;5025915;28;20544;-62
2023/07/16 12:40:03;;;;;;;;;;;;;;;23.26;47.89;98089.34;5024419;28;19925;-62
2023/07/16 12:42:51;;;;;;;;;;;;;;;23.43;48.99;98083.03;5023121;28;19933;-63
2023/07/16 12:45:41;;;;;;;;;;;;;;;23.50;47.42;98079.53;5022331;28;19932;-62
2023/07/16 12:48:29;;;;;;;;;;;;;;;23.48;47.04;98077.13;5020220;28;19936;-66
2023/07/16 12:51:17;;;;;;;;;;;;;;;23.48;48.64;98082.66;5019730;28;19928;-61
2023/07/16 12:54:06;;;;;;;;;;;;;;;23.41;48.00;98081.88;5027674;28;19928;-62
2023/07/16 12:56:55;;;;;;;;;;;;;;;23.43;47.78;98079.47;5018185;28;20586;-62
2023/07/16 12:59:44;;;;;;;;;;;;;;;23.15;47.38;98066.34;5020084;28;19933;-62
2023/07/16 13:02:33;;;;;;;;;;;;;;;23.30;48.02;98065.22;5020286;28;21231;-67
2023/07/16 13:05:21;;;;;;;;;;;;;;;23.40;48.03;98061.66;5019289;28;19990;-63
2023/07/16 13:08:10;;;;;;;;;;;;;;;23.46;48.47;98070.41;5021884;28;19932;-62
2023/07/16 13:10:58;;;;;;;;;;;;;;;23.40;47.92;98071.97;5019096;28;19925;-61
2023/07/16 13:13:46;;;;;;;;;;;;;;;23.40;47.69;98071.97;5019798;28;19933;-62
2023/07/16 13:16:35;;;;;;;;;;;;;;;23.49;48.30;98069.63;5021222;28;19967;-63
2023/07/16 13:19:25;;;;;;;;;;;;;;;23.62;48.05;98070.81;5016733;28;20309;-61
2023/07/16 13:22:13;;;;;;;;;;;;;;;23.79;46.86;98069.28;5021369;28;20028;-62
2023/07/16 13:25:02;;;;;;;;;;;;;;;23.79;48.06;98063.72;5025616;28;19939;-63
2023/07/16 13:27:52;;;;;;;;;;;;;;;23.85;46.42;98064.91;5018190;28;19925;-63
2023/07/16 13:30:41;;;;;;;;;;;;;;;23.99;47.24;98067.72;5025997;28;19971;-62
2023/07/16 13:33:29;;;;;;;;;;;;;;;23.97;48.21;98061.78;5026691;28;19983;-62
2023/07/16 13:36:19;;;;;;;;;;;;;;;24.01;46.67;98065.31;5021313;28;20731;-61
2023/07/16 13:39:07;;;;;;;;;;;;;;;24.11;46.72;98069.28;5019059;28;19925;-63
2023/07/16 13:41:56;;;;;;;;;;;;;;;24.08;48.39;98069.31;5018283;28;19932;-62
2023/07/16 13:44:56;;;;;;;;;;;;;;;24.07;48.61;98056.59;5024213;28;19932;-60
2023/07/16 13:47:44;;;;;;;;;;;;;;;24.04;47.56;98052.66;5023681;28;19936;-62
2023/07/16 13:50:33;;;;;;;;;;;;;;;24.05;48.91;98057.00;5013670;28;19937;-64
2023/07/16 13:53:22;;;;;;;;;;;;;;;24.09;48.88;98057.00;5013901;28;20419;-60
2023/07/16 13:56:11;;;;;;;;;;;;;;;24.04;49.11;98056.22;5010927;28;20279;-61
2023/07/16 13:59:00;;;;;;;;;;;;;;;24.07;49.02;98057.38;5019872;28;20004;-64
2023/07/16 14:01:48;;;;;;;;;;;;;;;24.12;49.19;98056.19;5016245;28;19929;-64
2023/07/16 14:04:37;;;;;;;;;;;;;;;24.07;45.88;98051.03;5020609;28;20474;-62
2023/07/16 14:07:25;;;;;;;;;;;;;;;24.08;47.06;98053.44;5024052;28;19925;-60
2023/07/16 14:10:17;;;;;;;;;;;;;;;24.11;48.41;98049.84;5020165;28;19930;-63
2023/07/16 14:13:06;;;;;;;;;;;;;;;24.17;48.75;98058.56;5032531;28;20333;-63
2023/07/16 14:15:54;;;;;;;;;;;;;;;24.22;48.77;98052.63;5021997;28;20425;-65
2023/07/16 14:18:42;;;;;;;;;;;;;;;24.23;46.92;98054.19;5023143;28;19937;-63
2023/07/16 14:21:31;;;;;;;;;;;;;;;24.23;46.40;98045.88;5020342;28;19925;-66
2023/07/16 14:24:19;;;;;;;;;;;;;;;24.22;45.71;98033.19;5019279;28;20017;-65
2023/07/16 14:27:09;;;;;;;;;;;;;;;24.10;44.41;98039.94;5018099;28;20500;-63
2023/07/16 14:29:57;;;;;;;;;;;;;;;24.14;46.15;98040.75;5014902;28;19941;-65
2023/07/16 14:32:53;;;;;;;;;;;;;;;24.18;46.50;98035.16;5012375;28;19929;-63
2023/07/16 14:35:42;;;;;;;;;;;;;;;24.25;46.04;98018.53;5020422;28;20035;-61
2023/07/16 14:38:30;;;;;;;;;;;;;;;24.35;46.99;98026.06;5018729;28;19960;-63
2023/07/16 14:41:18;;;;;;;;;;;;;;;24.45;45.83;98025.25;5020388;28;19925;-62